Time;durP1;ratioP1;P1;durP2;ratioP2;P2;SDS_P1;SDS_P2;PMS_P1;PMS_P2;Temp;Humidity;BMP_temperature;BMP_pressure;BME280_temperature;BME280_humidity;BME280_pressure;Samples;Min_cycle;Max_cycle;Signal;HPM_P1;HPM_P2
2022/10/18 00:01:28;;;;;;;2.13;1.92;;;22.40;54.70;21.40;102128.00;;;;5057818;28;20501;-66
2022/10/18 00:03:54;;;;;;;4.67;2.10;;;22.40;54.60;21.40;102133.00;;;;5044489;28;20028;-66
2022/10/18 00:06:20;;;;;;;2.57;1.73;;;22.40;54.70;21.40;102129.00;;;;5060541;28;20570;-66
2022/10/18 00:08:45;;;;;;;1.67;1.57;;;22.40;54.70;21.40;102131.00;;;;5061591;28;20170;-66
2022/10/18 00:11:11;;;;;;;2.07;1.77;;;22.30;54.60;21.40;102134.00;;;;5059893;28;20147;-66
2022/10/18 00:13:37;;;;;;;2.33;1.90;;;22.40;54.60;21.40;102136.00;;;;5061735;28;20116;-66
2022/10/18 00:16:04;;;;;;;2.57;2.37;;;22.40;54.60;21.40;102128.00;;;;5069098;28;20024;-66
2022/10/18 00:18:30;;;;;;;4.03;2.20;;;22.40;54.70;21.40;102135.00;;;;5058663;28;21018;-66
2022/10/18 00:21:03;;;;;;;2.22;1.77;;;22.40;54.60;21.40;102141.00;;;;5067338;28;20032;-67
2022/10/18 00:23:29;;;;;;;2.40;2.17;;;22.40;54.70;21.40;102146.00;;;;5067400;28;20040;-66
2022/10/18 00:26:13;;;;;;;2.20;2.00;;;22.30;54.60;21.40;102140.00;;;;5079480;28;20037;-66
2022/10/18 00:28:39;;;;;;;2.35;2.00;;;22.30;54.60;21.40;102130.00;;;;5065597;28;20040;-66
2022/10/18 00:31:10;;;;;;;2.28;2.08;;;22.30;54.60;21.40;102132.00;;;;5067225;28;20474;-66
2022/10/18 00:33:35;;;;;;;2.00;1.90;;;22.30;54.60;21.40;102135.00;;;;5064466;28;20040;-66
2022/10/18 00:36:01;;;;;;;2.33;1.80;;;22.30;54.60;21.40;102129.00;;;;5065948;28;20073;-66
2022/10/18 00:38:27;;;;;;;1.77;1.67;;;22.30;54.60;21.40;102133.00;;;;5062743;28;20042;-66
2022/10/18 00:40:52;;;;;;;2.33;1.90;;;22.30;54.60;21.40;102138.00;;;;5061814;28;20089;-66
2022/10/18 00:43:18;;;;;;;2.43;2.07;;;22.30;54.60;21.40;102131.00;;;;5067943;28;20120;-66
2022/10/18 00:45:44;;;;;;;2.57;2.37;;;22.30;54.60;21.40;102126.00;;;;5067449;28;20100;-66
2022/10/18 00:48:11;;;;;;;2.20;2.00;;;22.40;54.60;21.40;102125.00;;;;5069070;28;20057;-66
2022/10/18 00:50:36;;;;;;;;;;;22.30;54.60;21.40;102133.00;;;;5064155;28;20036;-66
2022/10/18 00:53:05;;;;;;;1.95;1.85;;;22.30;54.60;21.40;102130.00;;;;5068133;28;19916;-66
2022/10/18 00:55:31;;;;;;;1.88;1.77;;;22.40;54.50;21.40;102125.00;;;;5044141;28;20041;-66
2022/10/18 00:57:57;;;;;;;2.10;1.98;;;22.30;54.50;21.40;102126.00;;;;5058147;28;20028;-66
2022/10/18 01:00:23;;;;;;;2.07;1.93;;;22.30;55.10;21.40;102122.00;;;;5068065;28;20047;-66
2022/10/18 01:02:48;;;;;;;2.33;2.13;;;22.30;54.50;21.40;102114.00;;;;5066346;28;20542;-66
2022/10/18 01:05:16;;;;;;;2.13;2.00;;;22.30;54.50;21.40;102125.00;;;;5063074;28;20103;-66
2022/10/18 01:07:54;;;;;;;2.83;2.63;;;22.30;54.50;21.40;102116.00;;;;5066400;28;20028;-66
2022/10/18 01:10:41;;;;;;;2.20;2.00;;;22.30;54.50;21.40;102120.00;;;;5067365;28;20036;-66
2022/10/18 01:13:47;;;;;;;2.27;2.00;;;22.30;54.60;21.40;102121.00;;;;5065563;28;20036;-66
2022/10/18 01:16:35;;;;;;;4.55;2.45;;;22.30;54.50;21.40;102117.00;;;;5067692;28;20106;-67
2022/10/18 01:19:29;;;;;;;3.08;2.53;;;22.30;54.50;21.40;102114.00;;;;5056244;28;20051;-66
2022/10/18 01:22:01;;;;;;;4.60;2.40;;;22.30;54.60;21.40;102116.00;;;;5086875;28;20042;-67
2022/10/18 01:24:49;;;;;;;2.17;1.95;;;22.30;54.50;21.40;102114.00;;;;5074095;28;20082;-66
2022/10/18 01:27:20;;;;;;;2.67;2.47;;;22.30;54.50;21.40;102121.00;;;;5080678;28;20032;-67
2022/10/18 01:30:23;;;;;;;2.90;2.35;;;22.30;54.60;21.40;102127.00;;;;5073659;28;20453;-66
2022/10/18 01:32:51;;;;;;;2.95;2.30;;;22.30;54.50;21.40;102119.00;;;;5081537;28;20497;-67
2022/10/18 01:35:28;;;;;;;2.80;2.35;;;22.30;54.50;21.40;102120.00;;;;5069083;28;20509;-66
2022/10/18 01:37:55;;;;;;;4.10;2.50;;;22.30;54.50;21.40;102119.00;;;;5057691;28;20024;-66
2022/10/18 01:40:20;;;;;;;3.00;2.60;;;22.30;54.50;21.40;102118.00;;;;5085458;28;20052;-66
2022/10/18 01:42:46;;;;;;;2.60;2.40;;;22.30;54.60;21.40;102118.00;;;;5077340;28;20039;-66
2022/10/18 01:45:13;;;;;;;2.85;2.00;;;22.30;54.50;21.40;102115.00;;;;5066858;28;20039;-66
2022/10/18 01:47:39;;;;;;;3.28;2.60;;;22.30;54.50;21.40;102106.00;;;;5077464;28;20039;-66
2022/10/18 01:50:06;;;;;;;2.67;2.47;;;22.30;54.50;21.40;102098.00;;;;5068063;28;20140;-66
2022/10/18 01:52:32;;;;;;;2.97;2.67;;;22.30;54.50;21.40;102102.00;;;;5071184;28;20058;-66
2022/10/18 01:54:57;;;;;;;3.17;2.88;;;22.30;54.50;21.40;102098.00;;;;5085851;28;20028;-66
2022/10/18 01:57:32;;;;;;;3.30;2.53;;;22.30;54.50;21.40;102100.00;;;;5069974;28;20395;-66
2022/10/18 02:00:05;;;;;;;3.00;2.70;;;22.30;54.50;21.40;102105.00;;;;5070840;28;20028;-66
2022/10/18 02:02:51;;;;;;;4.68;3.20;;;22.30;54.50;21.40;102109.00;;;;5071208;28;20029;-66
2022/10/18 02:05:49;;;;;;;3.63;2.80;;;22.30;54.50;21.40;102100.00;;;;5077135;28;20028;-67
2022/10/18 02:08:22;;;;;;;;;;;22.30;54.50;21.30;102093.00;;;;5055791;28;20036;-66
2022/10/18 02:11:03;;;;;;;2.30;2.13;;;22.40;55.30;21.30;102096.00;;;;5074919;28;19917;-66
2022/10/18 02:13:44;;;;;;;3.72;3.00;;;22.30;54.40;21.30;102095.00;;;;5064391;28;20028;-66
2022/10/18 02:16:13;;;;;;;3.20;2.90;;;22.30;54.40;21.30;102101.00;;;;5072474;28;20036;-66
2022/10/18 02:19:10;;;;;;;3.30;3.00;;;22.30;54.50;21.30;102102.00;;;;5062855;28;20039;-66
2022/10/18 02:21:36;;;;;;;2.90;2.55;;;22.30;54.50;21.30;102103.00;;;;5061263;28;20049;-66
2022/10/18 02:24:01;;;;;;;4.22;3.05;;;22.30;54.50;21.40;102109.00;;;;5062538;28;20387;-66
2022/10/18 02:26:27;;;;;;;7.17;2.90;;;22.30;54.50;21.40;102105.00;;;;5081712;28;20033;-66
2022/10/18 02:28:53;;;;;;;5.27;3.40;;;22.30;54.50;21.40;102102.00;;;;5065369;28;20119;-66
2022/10/18 02:31:25;;;;;;;3.93;2.87;;;22.30;54.50;21.40;102097.00;;;;5068079;28;20135;-66
2022/10/18 02:34:03;;;;;;;3.53;3.10;;;22.30;54.50;21.40;102095.00;;;;5055159;28;20032;-66
2022/10/18 02:36:33;;;;;;;3.28;2.97;;;22.30;54.60;21.40;102107.00;;;;5078586;28;20394;-66
2022/10/18 02:39:08;;;;;;;3.67;3.10;;;22.30;54.50;21.40;102097.00;;;;5057123;28;20437;-66
2022/10/18 02:41:33;;;;;;;5.25;3.58;;;22.30;54.50;21.40;102090.00;;;;5058392;28;20112;-66
2022/10/18 02:43:59;;;;;;;3.40;3.00;;;22.30;54.60;21.40;102092.00;;;;5069918;28;20377;-67
2022/10/18 02:46:25;;;;;;;4.47;3.83;;;22.30;54.60;21.30;102085.00;;;;5063066;28;20107;-67
2022/10/18 02:48:50;;;;;;;4.60;3.30;;;22.30;54.60;21.40;102091.00;;;;5066304;28;20056;-67
2022/10/18 02:51:16;;;;;;;4.33;2.83;;;22.30;55.20;21.40;102090.00;;;;5064979;28;20478;-67
2022/10/18 02:53:42;;;;;;;4.67;4.17;;;22.30;54.60;21.40;102092.00;;;;5070539;28;20397;-67
2022/10/18 02:56:08;;;;;;;5.37;3.27;;;22.30;54.50;21.40;102095.00;;;;5067709;28;20107;-66
2022/10/18 02:58:34;;;;;;;4.67;3.47;;;22.30;54.60;21.40;102099.00;;;;5063822;28;20116;-66
2022/10/18 03:00:59;;;;;;;3.93;3.53;;;22.40;54.60;21.40;102097.00;;;;5065798;28;20553;-66
2022/10/18 03:03:25;;;;;;;3.73;3.33;;;22.30;54.50;21.40;102099.00;;;;5060283;28;20045;-66
2022/10/18 03:05:51;;;;;;;8.30;3.90;;;22.30;54.60;21.40;102090.00;;;;5060302;28;20046;-66
2022/10/18 03:08:17;;;;;;;6.68;4.32;;;22.30;54.50;21.40;102096.00;;;;5061909;28;20152;-67
2022/10/18 03:10:44;;;;;;;6.80;3.30;;;22.30;54.70;21.40;102102.00;;;;5062459;28;20482;-66
2022/10/18 03:13:09;;;;;;;3.78;3.25;;;22.30;54.50;21.40;102095.00;;;;5061259;28;20033;-66
2022/10/18 03:15:35;;;;;;;4.10;3.30;;;22.30;54.50;21.40;102098.00;;;;5062328;28;20394;-67
2022/10/18 03:18:01;;;;;;;4.78;3.38;;;22.30;54.60;21.40;102095.00;;;;5064586;28;20107;-66
2022/10/18 03:20:27;;;;;;;3.90;3.23;;;22.30;54.60;21.40;102092.00;;;;5057076;28;20047;-66
2022/10/18 03:22:53;;;;;;;4.27;3.67;;;22.30;54.60;21.40;102090.00;;;;5063356;28;20051;-66
2022/10/18 03:25:18;;;;;;;4.80;3.67;;;22.30;54.60;21.40;102090.00;;;;5060155;28;20097;-66
2022/10/18 03:27:44;;;;;;;4.77;3.57;;;22.30;54.60;21.40;102094.00;;;;5061411;28;20065;-66
2022/10/18 03:30:13;;;;;;;5.63;3.47;;;22.30;54.60;21.40;102097.00;;;;5064297;28;20151;-66
2022/10/18 03:32:39;;;;;;;4.13;3.40;;;22.30;54.60;21.40;102097.00;;;;5058777;28;20512;-66
2022/10/18 03:35:06;;;;;;;5.20;3.88;;;22.30;54.60;21.40;102095.00;;;;5061421;28;20086;-66
2022/10/18 03:37:32;;;;;;;5.85;3.97;;;22.30;54.60;21.40;102103.00;;;;5061234;28;20046;-66
2022/10/18 03:39:57;;;;;;;4.27;3.40;;;22.30;54.60;21.40;102093.00;;;;5064955;28;20028;-66
2022/10/18 03:42:23;;;;;;;4.00;3.37;;;22.30;54.60;21.40;102098.00;;;;5063966;28;20104;-66
2022/10/18 03:44:49;;;;;;;5.17;3.70;;;22.30;54.70;21.40;102088.00;;;;5061329;28;20032;-66
2022/10/18 03:47:14;;;;;;;5.03;3.70;;;22.30;54.60;21.40;102090.00;;;;5065285;28;20139;-66
2022/10/18 03:49:40;;;;;;;6.73;3.80;;;22.30;54.60;21.40;102079.00;;;;5063689;28;20028;-66
2022/10/18 03:52:06;;;;;;;6.43;3.80;;;22.30;54.60;21.40;102077.00;;;;5055756;28;20182;-66
2022/10/18 03:54:32;;;;;;;6.77;3.87;;;22.30;54.60;21.40;102076.00;;;;5061311;28;20124;-66
2022/10/18 03:56:58;;;;;;;5.67;4.00;;;22.40;54.70;21.40;102078.00;;;;5063388;28;20040;-66
2022/10/18 03:59:23;;;;;;;5.32;3.95;;;22.40;54.70;21.40;102077.00;;;;5062359;28;20458;-66
2022/10/18 04:01:49;;;;;;;6.10;4.20;;;22.30;54.60;21.40;102085.00;;;;5078968;28;20044;-66
2022/10/18 04:04:15;;;;;;;5.57;4.33;;;22.40;54.70;21.40;102078.00;;;;5061439;28;20557;-66
2022/10/18 04:06:41;;;;;;;5.03;3.87;;;22.40;54.70;21.40;102069.00;;;;5064181;28;20107;-66
2022/10/18 04:09:06;;;;;;;6.17;4.07;;;22.30;54.60;21.40;102066.00;;;;5065863;28;20128;-67
2022/10/18 04:11:32;;;;;;;4.67;3.87;;;22.30;54.60;21.40;102081.00;;;;5056419;28;20071;-66
2022/10/18 04:13:58;;;;;;;6.37;4.40;;;22.40;54.60;21.40;102094.00;;;;5062699;28;21449;-66
2022/10/18 04:16:24;;;;;;;7.23;4.47;;;22.30;54.60;21.40;102087.00;;;;5066867;28;20440;-66
2022/10/18 04:18:49;;;;;;;5.73;3.83;;;22.40;54.70;21.40;102091.00;;;;5057789;28;20074;-66
2022/10/18 04:21:15;;;;;;;4.90;4.10;;;22.30;54.60;21.40;102100.00;;;;5062298;28;20116;-66
2022/10/18 04:23:41;;;;;;;5.87;4.53;;;22.30;54.60;21.40;102094.00;;;;5054381;28;20044;-66
2022/10/18 04:26:06;;;;;;;5.70;4.37;;;22.40;54.60;21.40;102100.00;;;;5060114;28;20127;-67
2022/10/18 04:28:33;;;;;;;5.57;4.27;;;22.40;54.60;21.40;102100.00;;;;5058387;28;20041;-66
2022/10/18 04:30:59;;;;;;;;;;;22.30;54.70;21.40;102091.00;;;;5062156;28;20032;-67
2022/10/18 04:33:24;;;;;;;5.15;4.32;;;22.40;54.60;21.40;102092.00;;;;5066018;28;20380;-66
2022/10/18 04:35:51;;;;;;;5.53;4.77;;;22.30;54.50;21.30;102082.00;;;;5081094;28;20033;-66
2022/10/18 04:38:17;;;;;;;5.43;4.30;;;22.30;54.50;21.40;102080.00;;;;5060146;28;20044;-67
2022/10/18 04:40:43;;;;;;;6.65;4.85;;;22.30;54.60;21.40;102092.00;;;;5062342;28;20119;-66
2022/10/18 04:43:08;;;;;;;5.40;4.57;;;22.40;54.60;21.40;102086.00;;;;5063503;28;20033;-66
2022/10/18 04:45:34;;;;;;;5.67;4.77;;;22.40;54.60;21.40;102092.00;;;;5060342;28;20082;-66
2022/10/18 04:48:00;;;;;;;6.13;4.60;;;22.30;54.60;21.40;102097.00;;;;5064434;28;20031;-66
2022/10/18 04:50:26;;;;;;;5.80;4.40;;;22.30;54.70;21.40;102102.00;;;;5061868;28;20442;-66
2022/10/18 04:52:52;;;;;;;6.95;4.75;;;22.30;54.70;21.40;102097.00;;;;5061274;28;20029;-67
2022/10/18 04:55:18;;;;;;;5.40;4.55;;;22.30;54.70;21.40;102108.00;;;;5063938;28;20422;-66
2022/10/18 04:57:44;;;;;;;5.38;4.57;;;22.30;54.70;21.40;102114.00;;;;5063914;28;20534;-66
2022/10/18 05:00:10;;;;;;;6.60;4.67;;;22.40;54.70;21.40;102117.00;;;;5058729;28;20028;-67
2022/10/18 05:02:36;;;;;;;6.57;5.28;;;22.30;54.70;21.40;102113.00;;;;5062617;28;20524;-66
2022/10/18 05:05:02;;;;;;;6.83;4.93;;;22.30;54.70;21.40;102111.00;;;;5062864;28;20057;-67
2022/10/18 05:07:28;;;;;;;6.05;4.90;;;22.30;54.70;21.40;102120.00;;;;5059741;28;20056;-66
2022/10/18 05:09:53;;;;;;;5.63;4.97;;;22.30;54.70;21.40;102121.00;;;;5061863;28;20086;-66
2022/10/18 05:12:19;;;;;;;7.57;4.90;;;22.30;54.70;21.40;102117.00;;;;5063835;28;20137;-66
2022/10/18 05:14:45;;;;;;;6.23;5.13;;;22.30;54.70;21.40;102128.00;;;;5062541;28;20123;-66
2022/10/18 05:17:11;;;;;;;6.67;4.87;;;22.30;54.80;21.40;102118.00;;;;5058512;28;20048;-66
2022/10/18 05:19:36;;;;;;;7.47;5.23;;;22.30;54.70;21.40;102118.00;;;;5063747;28;20111;-66
2022/10/18 05:22:02;;;;;;;6.70;5.10;;;22.30;54.70;21.40;102125.00;;;;5065814;28;20107;-66
2022/10/18 05:24:28;;;;;;;7.13;5.53;;;22.30;54.70;21.40;102119.00;;;;5065633;28;20127;-67
2022/10/18 05:26:53;;;;;;;5.90;4.83;;;22.30;54.70;21.40;102112.00;;;;5058383;28;20020;-66
2022/10/18 05:29:19;;;;;;;6.40;5.17;;;22.40;54.70;21.40;102116.00;;;;5062991;28;20032;-66
2022/10/18 05:31:46;;;;;;;6.90;5.17;;;22.40;54.70;21.40;102114.00;;;;5065262;28;20052;-66
2022/10/18 05:34:12;;;;;;;6.78;5.53;;;22.40;54.70;21.40;102108.00;;;;5071421;28;20077;-66
2022/10/18 05:36:38;;;;;;;6.80;5.80;;;22.40;54.70;21.40;102101.00;;;;5058032;28;20054;-66
2022/10/18 05:39:04;;;;;;;6.43;5.17;;;22.40;54.70;21.40;102102.00;;;;5066726;28;20089;-66
2022/10/18 05:41:30;;;;;;;7.78;5.65;;;22.30;54.70;21.40;102104.00;;;;5062291;28;20033;-67
2022/10/18 05:43:55;;;;;;;6.18;5.43;;;22.30;54.70;21.40;102099.00;;;;5060730;28;20059;-66
2022/10/18 05:46:21;;;;;;;7.60;5.73;;;22.40;54.70;21.40;102099.00;;;;5068200;28;20043;-66
2022/10/18 05:48:50;;;;;;;6.70;5.67;;;22.30;54.70;21.40;102095.00;;;;5068747;28;20899;-66
2022/10/18 05:51:17;;;;;;;7.40;5.97;;;22.30;54.70;21.40;102099.00;;;;5069669;28;20043;-66
2022/10/18 05:53:43;;;;;;;7.25;6.25;;;22.40;54.70;21.40;102104.00;;;;5084875;28;20036;-66
2022/10/18 05:56:10;;;;;;;9.20;6.33;;;22.40;54.70;21.40;102116.00;;;;5073082;28;20457;-66
2022/10/18 05:58:36;;;;;;;8.27;5.90;;;22.40;54.70;21.40;102117.00;;;;5066363;28;20027;-66
2022/10/18 06:01:03;;;;;;;8.30;5.80;;;22.40;54.70;21.40;102115.00;;;;5069849;28;20020;-66
2022/10/18 06:03:32;;;;;;;7.78;5.80;;;22.40;54.70;21.40;102108.00;;;;5068186;28;20075;-66
2022/10/18 06:06:05;;;;;;;7.72;5.82;;;22.30;54.70;21.40;102129.00;;;;5065807;28;20028;-66
2022/10/18 06:08:31;;;;;;;8.10;6.20;;;22.40;54.70;21.40;102135.00;;;;5065327;28;20036;-66
2022/10/18 06:10:57;;;;;;;7.63;6.13;;;22.40;54.70;21.40;102134.00;;;;5075296;28;20362;-66
2022/10/18 06:13:22;;;;;;;8.33;6.50;;;22.40;54.70;21.40;102129.00;;;;5070756;28;21062;-66
2022/10/18 06:15:48;;;;;;;8.07;6.37;;;22.40;54.80;21.40;102143.00;;;;5070251;28;20044;-66
2022/10/18 06:18:14;;;;;;;8.13;6.25;;;22.40;54.70;21.40;102134.00;;;;5068135;28;20029;-66
2022/10/18 06:20:40;;;;;;;8.73;6.07;;;22.40;54.70;21.40;102142.00;;;;5069567;28;20043;-67
2022/10/18 06:23:06;;;;;;;7.90;6.00;;;22.40;54.70;21.40;102132.00;;;;5071053;28;21089;-67
2022/10/18 06:25:31;;;;;;;8.57;6.10;;;22.30;54.70;21.40;102136.00;;;;5069795;28;20047;-66
2022/10/18 06:27:57;;;;;;;7.83;6.10;;;22.30;54.70;21.40;102134.00;;;;5068202;28;20584;-66
2022/10/18 06:30:23;;;;;;;9.70;6.80;;;22.40;54.70;21.40;102133.00;;;;5072020;28;20430;-67
2022/10/18 06:32:48;;;;;;;9.63;7.40;;;22.30;54.70;21.40;102146.00;;;;5063568;28;20548;-66
2022/10/18 06:35:14;;;;;;;8.60;7.13;;;22.30;54.70;21.40;102159.00;;;;5065941;28;20116;-66
2022/10/18 06:37:40;;;;;;;9.17;6.70;;;22.40;54.70;21.40;102166.00;;;;5066366;28;20076;-66
2022/10/18 06:40:06;;;;;;;10.00;6.93;;;22.40;54.70;21.40;102158.00;;;;5069718;28;20181;-66
2022/10/18 06:42:32;;;;;;;10.00;7.20;;;22.40;54.70;21.40;102154.00;;;;5068689;28;20047;-66
2022/10/18 06:44:59;;;;;;;9.37;5.90;;;22.40;54.70;21.40;102162.00;;;;5068182;28;20028;-66
2022/10/18 06:47:25;;;;;;;10.18;6.68;;;22.40;54.70;21.40;102168.00;;;;5069339;28;20050;-66
2022/10/18 06:49:50;;;;;;;10.10;7.23;;;22.40;54.70;21.40;102184.00;;;;5065782;28;20041;-66
2022/10/18 06:52:17;;;;;;;8.60;6.80;;;22.40;54.70;21.40;102182.00;;;;5063141;28;20553;-66
2022/10/18 06:54:42;;;;;;;8.98;6.50;;;22.40;54.70;21.40;102184.00;;;;5066058;28;20486;-66
2022/10/18 06:57:08;;;;;;;9.00;6.60;;;22.40;54.70;21.40;102188.00;;;;5074324;28;20024;-66
2022/10/18 06:59:34;;;;;;;10.17;7.17;;;22.40;54.70;21.40;102191.00;;;;5065032;28;20111;-66
2022/10/18 07:02:00;;;;;;;9.43;6.70;;;22.40;54.70;21.40;102189.00;;;;5070932;28;20024;-66
2022/10/18 07:04:31;;;;;;;10.23;6.60;;;22.40;54.70;21.40;102199.00;;;;5065485;28;20478;-67
2022/10/18 07:06:57;;;;;;;11.40;7.72;;;22.40;54.70;21.40;102206.00;;;;5063657;28;20239;-66
2022/10/18 07:09:23;;;;;;;9.53;6.80;;;22.40;54.70;21.40;102193.00;;;;5067561;28;20107;-66
2022/10/18 07:11:49;;;;;;;10.17;7.17;;;22.40;54.70;21.40;102199.00;;;;5067847;28;20107;-66
2022/10/18 07:14:14;;;;;;;10.33;7.17;;;22.40;54.70;21.40;102196.00;;;;5065218;28;20056;-67
2022/10/18 07:16:40;;;;;;;10.87;7.73;;;22.40;54.70;21.40;102214.00;;;;5068813;28;21003;-66
2022/10/18 07:19:06;;;;;;;9.90;7.40;;;22.40;54.70;21.40;102221.00;;;;5057775;28;20546;-66
2022/10/18 07:21:31;;;;;;;10.23;7.77;;;22.30;54.70;21.40;102227.00;;;;5066162;28;20191;-67
2022/10/18 07:23:57;;;;;;;10.30;7.50;;;22.40;54.70;21.40;102234.00;;;;5062304;28;20152;-67
2022/10/18 07:26:26;;;;;;;9.73;6.80;;;22.30;54.70;21.40;102227.00;;;;5066385;28;20111;-67
2022/10/18 07:28:57;;;;;;;11.18;7.55;;;22.40;54.70;21.40;102230.00;;;;5062822;28;20474;-67
2022/10/18 07:31:23;;;;;;;10.75;7.35;;;22.30;54.70;21.40;102221.00;;;;5066073;28;20028;-66
2022/10/18 07:33:49;;;;;;;8.85;7.22;;;22.40;54.70;21.40;102217.00;;;;5057282;28;20028;-67
2022/10/18 07:36:15;;;;;;;9.63;7.75;;;22.40;54.70;21.40;102225.00;;;;5076076;28;20530;-67
2022/10/18 07:38:41;;;;;;;8.00;6.72;;;22.30;54.70;21.40;102234.00;;;;5057524;28;20047;-66
2022/10/18 07:41:07;;;;;;;10.13;7.30;;;22.30;54.70;21.40;102234.00;;;;5059905;28;20412;-67
2022/10/18 07:43:33;;;;;;;14.82;8.23;;;22.40;54.70;21.40;102239.00;;;;5058799;28;20043;-67
2022/10/18 07:46:02;;;;;;;13.43;7.47;;;22.40;54.90;21.40;102241.00;;;;5063519;28;20026;-67
2022/10/18 07:48:28;;;;;;;10.35;7.35;;;22.30;54.80;21.40;102238.00;;;;5065716;28;20025;-66
2022/10/18 07:50:53;;;;;;;12.13;7.70;;;22.40;54.80;21.40;102240.00;;;;5062878;28;20033;-66
2022/10/18 07:53:19;;;;;;;12.13;7.10;;;22.30;54.70;21.40;102253.00;;;;5057521;28;20517;-67
2022/10/18 07:55:45;;;;;;;10.20;7.83;;;22.40;54.80;21.40;102248.00;;;;5060412;28;20553;-67
2022/10/18 07:58:11;;;;;;;12.17;7.90;;;22.40;54.80;21.40;102254.00;;;;5066117;28;20569;-67
2022/10/18 08:00:37;;;;;;;11.68;8.18;;;22.40;54.80;21.40;102255.00;;;;5060946;28;20036;-66
2022/10/18 08:03:02;;;;;;;11.40;8.00;;;22.30;54.80;21.40;102257.00;;;;5062869;28;20508;-67
2022/10/18 08:05:28;;;;;;;11.97;7.87;;;22.30;54.80;21.40;102247.00;;;;5063604;28;20570;-67
2022/10/18 08:07:54;;;;;;;13.38;8.07;;;22.40;54.80;21.40;102238.00;;;;5064799;28;20170;-67
2022/10/18 08:10:21;;;;;;;12.13;7.83;;;22.40;54.90;21.40;102246.00;;;;5060560;28;20051;-66
2022/10/18 08:12:46;;;;;;;12.43;8.48;;;22.40;54.90;21.40;102252.00;;;;5057505;28;20029;-67
2022/10/18 08:15:12;;;;;;;11.10;8.17;;;22.40;54.90;21.40;102251.00;;;;5064059;28;20033;-67
2022/10/18 08:17:38;;;;;;;11.10;8.03;;;22.40;54.80;21.40;102262.00;;;;5058176;28;20108;-67
2022/10/18 08:20:04;;;;;;;12.30;8.20;;;22.40;54.90;21.40;102255.00;;;;5065545;28;20288;-67
2022/10/18 08:22:30;;;;;;;14.02;7.78;;;22.40;54.90;21.40;102265.00;;;;5062134;28;20470;-67
2022/10/18 08:24:56;;;;;;;11.73;8.05;;;22.40;54.90;21.40;102268.00;;;;5064736;28;20047;-66
2022/10/18 08:27:23;;;;;;;11.07;7.77;;;22.40;54.90;21.40;102267.00;;;;5057981;28;20043;-67
2022/10/18 08:29:49;;;;;;;11.85;7.38;;;22.30;54.90;21.40;102256.00;;;;5052287;28;20029;-66
2022/10/18 08:32:15;;;;;;;11.95;7.75;;;22.30;54.80;21.40;102262.00;;;;5062948;28;20122;-67
2022/10/18 08:34:41;;;;;;;11.83;7.73;;;22.30;54.80;21.40;102260.00;;;;5058257;28;20036;-67
2022/10/18 08:37:07;;;;;;;11.60;7.63;;;22.40;54.80;21.40;102267.00;;;;5059399;28;20115;-67
2022/10/18 08:39:32;;;;;;;10.97;7.57;;;22.30;54.80;21.40;102276.00;;;;5057711;28;20104;-67
2022/10/18 08:42:25;;;;;;;13.97;8.33;;;22.30;54.80;21.40;102270.00;;;;5064495;28;20274;-67
2022/10/18 08:44:51;;;;;;;11.77;7.05;;;22.40;54.80;21.40;102278.00;;;;5063219;28;20063;-67
2022/10/18 08:47:35;;;;;;;9.33;7.37;;;22.30;54.80;21.40;102289.00;;;;5057386;28;20081;-67
2022/10/18 08:50:06;;;;;;;11.93;8.07;;;22.40;54.80;21.40;102292.00;;;;5044860;28;20060;-67
2022/10/18 08:52:58;;;;;;;10.25;7.30;;;22.30;54.80;21.40;102295.00;;;;5065169;28;20042;-67
2022/10/18 08:55:34;;;;;;;11.48;7.68;;;22.30;54.80;21.40;102292.00;;;;5058222;28;20531;-67
2022/10/18 08:58:01;;;;;;;11.88;7.18;;;22.30;54.80;21.40;102289.00;;;;5061796;28;20033;-67
2022/10/18 09:00:33;;;;;;;14.05;7.45;;;22.30;54.80;21.40;102297.00;;;;5056598;28;20094;-66
2022/10/18 09:03:20;;;;;;;10.43;7.72;;;22.30;55.40;21.40;102305.00;;;;5066862;28;20590;-67
2022/10/18 09:06:02;;;;;;;10.07;7.18;;;22.40;54.80;21.40;102302.00;;;;5065799;28;20112;-67
2022/10/18 09:09:01;;;;;;;10.15;6.28;;;22.30;54.80;21.40;102297.00;;;;5062809;28;20045;-67
2022/10/18 09:12:16;;;;;;;10.23;7.00;;;22.40;54.80;21.40;102300.00;;;;5058941;28;20449;-67
2022/10/18 09:15:26;;;;;;;9.57;6.85;;;22.30;54.80;21.30;102311.00;;;;5062988;28;20038;-67
2022/10/18 09:18:26;;;;;;;9.93;7.45;;;22.30;54.80;21.30;102308.00;;;;5054658;28;20051;-66
2022/10/18 09:20:57;;;;;;;12.35;7.22;;;22.30;54.80;21.30;102313.00;;;;5065685;28;20586;-67
2022/10/18 09:24:04;;;;;;;10.43;6.75;;;22.30;54.80;21.30;102313.00;;;;5061874;28;20032;-67
2022/10/18 09:26:36;;;;;;;10.50;6.82;;;22.30;54.80;21.30;102314.00;;;;5031240;28;20055;-67
2022/10/18 09:29:33;;;;;;;10.77;7.03;;;22.30;54.70;21.30;102310.00;;;;5061222;28;20530;-66
2022/10/18 09:32:24;;;;;;;11.25;7.00;;;22.30;54.80;21.30;102312.00;;;;5060036;28;20094;-66
2022/10/18 09:35:18;;;;;;;11.40;6.30;;;22.30;54.80;21.30;102320.00;;;;5050929;28;20029;-66
2022/10/18 09:37:44;;;;;;;9.80;6.63;;;22.30;54.80;21.30;102312.00;;;;5075940;28;20035;-66
2022/10/18 09:40:25;;;;;;;10.47;6.80;;;22.30;54.70;21.30;102315.00;;;;5067341;28;20033;-67
2022/10/18 09:43:14;;;;;;;10.15;6.50;;;22.30;54.80;21.30;102316.00;;;;5054273;28;20279;-67
2022/10/18 09:45:42;;;;;;;9.23;6.25;;;22.30;54.70;21.40;102322.00;;;;5052058;28;20032;-66
2022/10/18 09:48:44;;;;;;;9.55;5.82;;;22.30;54.70;21.40;102311.00;;;;5063970;28;20028;-67
2022/10/18 09:51:22;;;;;;;9.55;6.05;;;22.40;54.70;21.30;102311.00;;;;5052594;28;20056;-67
2022/10/18 09:54:15;;;;;;;11.07;6.40;;;22.30;54.80;21.40;102312.00;;;;5066739;28;20020;-67
2022/10/18 09:57:01;;;;;;;9.25;6.32;;;22.30;54.70;21.40;102320.00;;;;5067299;28;20460;-67
2022/10/18 09:59:31;;;;;;;7.85;5.50;;;22.40;54.70;21.30;102325.00;;;;5064937;28;20115;-67
2022/10/18 10:01:56;;;;;;;11.63;6.00;;;22.30;54.60;21.40;102316.00;;;;5069866;28;20486;-67
2022/10/18 10:04:22;;;;;;;10.70;5.77;;;22.40;54.60;21.40;102309.00;;;;5065138;28;20042;-67
2022/10/18 10:06:49;;;;;;;8.37;6.20;;;22.30;54.60;21.40;102316.00;;;;5068149;28;20119;-67
2022/10/18 10:09:17;;;;;;;9.32;6.18;;;22.30;54.60;21.40;102317.00;;;;5063317;28;20017;-67
2022/10/18 10:11:50;;;;;;;10.88;6.25;;;22.40;54.60;21.40;102315.00;;;;5084027;28;20033;-67
2022/10/18 10:14:26;;;;;;;9.50;5.60;;;22.30;54.60;21.40;102322.00;;;;5063448;28;20090;-67
2022/10/18 10:17:23;;;;;;;9.55;5.75;;;22.40;54.60;21.40;102329.00;;;;5052246;28;20534;-67
2022/10/18 10:20:03;;;;;;;12.10;5.97;;;22.30;54.60;21.40;102326.00;;;;5049295;28;20044;-67
2022/10/18 10:22:38;;;;;;;8.82;5.30;;;22.40;54.60;21.40;102309.00;;;;5069576;28;20028;-67
2022/10/18 10:25:04;;;;;;;8.95;4.93;;;22.40;54.50;21.40;102321.00;;;;5040171;28;20115;-67
2022/10/18 10:27:33;;;;;;;7.07;5.40;;;22.40;54.60;21.40;102323.00;;;;5068060;28;20043;-67
2022/10/18 10:30:01;;;;;;;7.85;5.38;;;22.40;54.60;21.40;102321.00;;;;5075952;28;20495;-67
2022/10/18 10:32:30;;;;;;;8.13;5.47;;;22.40;54.60;21.40;102320.00;;;;5058872;28;20389;-67
2022/10/18 10:34:56;;;;;;;7.30;4.97;;;22.40;54.60;21.40;102323.00;;;;5054482;28;20490;-67
2022/10/18 10:37:35;;;;;;;8.48;5.30;;;22.40;54.50;21.40;102330.00;;;;5084186;28;20031;-67
2022/10/18 10:40:16;;;;;;;8.35;5.47;;;22.40;54.50;21.40;102324.00;;;;5050127;28;20097;-67
2022/10/18 10:42:53;;;;;;;9.25;4.90;;;22.40;54.50;21.40;102312.00;;;;5071738;28;20147;-67
2022/10/18 10:45:22;;;;;;;7.55;5.35;;;22.30;54.50;21.40;102316.00;;;;5071010;28;20433;-67
2022/10/18 10:47:48;;;;;;;6.97;4.75;;;22.40;54.50;21.40;102317.00;;;;5065690;28;20468;-67
2022/10/18 10:50:26;;;;;;;9.50;4.82;;;22.40;54.50;21.40;102319.00;;;;5070220;28;20025;-67
2022/10/18 10:52:52;;;;;;;6.30;4.43;;;22.40;54.50;21.40;102313.00;;;;5087373;28;20099;-67
2022/10/18 10:55:32;;;;;;;8.60;4.78;;;22.40;54.40;21.40;102310.00;;;;5066429;28;20021;-67
2022/10/18 10:57:58;;;;;;;7.57;4.40;;;22.40;54.40;21.40;102320.00;;;;5072398;28;20029;-67